Costa Atlantica — IBLQ — position and weather

sailwx.info

Track history (hours):
 
Tides and Currents Weather Stations Pressure Air Temp Water Temp Dewpoint Dewpoint Depression Visibility Wind Speed Wind Dir Waves Ship Positions

Costa Atlantica (Italy)

Last reported at 2018-May-28 09:30 UTC. Time now 2018-May-28 09:47 UTC.
Position N 23°46' E 118°38'.

Length 292 m; draft 8 m.

Type: Ship. MMSI: 247595017.

Date/timePositionNaut miles runAvg speedWind from/ knotsBaromVisibWave heightAir tempDewpointWater temp
2018-May-28 09:30N 23°46' E 118°38'1019.4
2018-May-28 09:00N 23°52' E 118°47'1019.3
2018-May-28 08:30N 23°58' E 118°55'1019.4
2018-May-28 08:00N 24°03' E 119°04'1319.5
2018-May-28 07:22N 24°10' E 119°15'1019.6
2018-May-28 06:52N 24°16' E 119°24'  
2018-May-25 01:22N 24°04' E 119°05'1220.1
2018-May-25 00:47N 23°56' E 118°54'720.2
2018-May-25 00:25N 23°52' E 118°48'1520.4
2018-May-24 23:42N 23°43' E 118°35'820.6
2018-May-24 23:18N 23°39' E 118°28'820.9
2018-May-24 22:55N 23°34' E 118°21'3221.4
2018-May-24 21:26N 23°16' E 117°52'  
Track history (hours):
 
Tides and Currents Weather Stations Pressure Air Temp Water Temp Dewpoint Dewpoint Depression Visibility Wind Speed Wind Dir Waves Ship Positions

Costa Atlantica (Italy)

Last reported at 2018-May-28 09:30 UTC. Time now 2018-May-28 09:47 UTC.
Position N 23°46' E 118°38'.

Length 292 m; draft 8 m.

Type: Ship. MMSI: 247595017.

Date/timePositionNaut miles runAvg speedWind from/ knotsBaromVisibWave heightAir tempDewpointWater temp
2018-May-28 09:30N 23°46' E 118°38'1019.4
2018-May-28 09:00N 23°52' E 118°47'1019.3
2018-May-28 08:30N 23°58' E 118°55'1019.4
2018-May-28 08:00N 24°03' E 119°04'1319.5
2018-May-28 07:22N 24°10' E 119°15'1019.6
2018-May-28 06:52N 24°16' E 119°24'  
2018-May-25 01:22N 24°04' E 119°05'1220.1
2018-May-25 00:47N 23°56' E 118°54'720.2
2018-May-25 00:25N 23°52' E 118°48'1520.4
2018-May-24 23:42N 23°43' E 118°35'820.6
2018-May-24 23:18N 23°39' E 118°28'820.9
2018-May-24 22:55N 23°34' E 118°21'3221.4
2018-May-24 21:26N 23°16' E 117°52'  

Dump ship's entire track history